Time;durP1;ratioP1;P1;durP2;ratioP2;P2;SDS_P1;SDS_P2;PMS_P1;PMS_P2;Temp;Humidity;BMP_temperature;BMP_pressure;BME280_temperature;BME280_humidity;BME280_pressure;Samples;Min_cycle;Max_cycle;Signal;HPM_P1;HPM_P2
2021/03/14 16:25:41;;;;;;;38.85;30.92;;;;;;;16.71;100.00;100304.91;4933477;23;20378;-75
2021/03/14 16:28:26;;;;;;;29.05;18.52;;;;;;;16.49;100.00;100306.03;4917850;29;20131;-76
2021/03/14 16:31:16;;;;;;;32.58;18.35;;;;;;;16.43;100.00;100311.63;4917747;29;20023;-75
2021/03/14 16:34:01;;;;;;;40.47;24.85;;;;;;;16.37;100.00;100309.22;4886051;29;20028;-75
2021/03/14 16:36:47;;;;;;;39.72;21.20;;;;;;;16.35;100.00;100303.16;4886126;29;20052;-75
2021/03/14 16:39:33;;;;;;;32.25;17.92;;;;;;;16.38;100.00;100303.00;4899071;29;20043;-75
2021/03/14 16:42:19;;;;;;;28.10;17.55;;;;;;;16.19;100.00;100294.25;4898058;29;20040;-75
2021/03/14 16:45:06;;;;;;;29.63;17.80;;;;;;;16.28;100.00;100301.72;4899441;29;20044;-74
2021/03/14 16:47:52;;;;;;;42.60;23.25;;;;;;;15.74;100.00;100291.03;4898479;29;20469;-75
2021/03/14 16:50:38;;;;;;;37.83;22.38;;;;;;;15.88;100.00;100307.16;4899813;29;20044;-75
2021/03/14 16:53:24;;;;;;;35.22;22.35;;;;;;;16.09;100.00;100304.38;4897594;29;20370;-74
2021/03/14 16:56:11;;;;;;;41.35;26.77;;;;;;;16.10;100.00;100298.16;4898765;29;20033;-74
2021/03/14 16:58:57;;;;;;;67.97;42.85;;;;;;;16.07;100.00;100297.47;4898558;29;20036;-74
2021/03/14 17:01:43;;;;;;;61.10;34.35;;;;;;;16.02;100.00;100300.31;4899153;29;20024;-74
2021/03/14 17:04:29;;;;;;;46.08;26.52;;;;;;;15.95;100.00;100296.22;4886868;29;20020;-74
2021/03/14 17:07:15;;;;;;;43.08;25.38;;;;;;;15.71;100.00;100297.31;4885345;29;20035;-73
2021/03/14 17:10:06;;;;;;;39.22;27.08;;;;;;;15.59;100.00;100294.41;4885278;29;20033;-74
2021/03/14 17:12:52;;;;;;;52.35;29.35;;;;;;;15.54;100.00;100284.03;4899274;29;20040;-75
2021/03/14 17:15:37;;;;;;;51.38;31.42;;;;;;;15.67;100.00;100282.53;4899297;29;20581;-74
2021/03/14 17:18:23;;;;;;;54.72;35.08;;;;;;;15.57;100.00;100288.31;4898479;29;20039;-74
2021/03/14 17:21:09;;;;;;;46.88;31.27;;;;;;;15.32;100.00;100277.97;4901501;29;20048;-74
2021/03/14 17:23:55;;;;;;;52.28;31.83;;;;;;;15.51;100.00;100278.88;4902981;29;20049;-74
2021/03/14 17:26:41;;;;;;;49.92;32.30;;;;;;;15.24;100.00;100285.34;4889386;29;20033;-74
2021/03/14 17:29:26;;;;;;;59.03;37.58;;;;;;;15.32;100.00;100283.25;4901276;29;20032;-73
2021/03/14 17:32:12;;;;;;;57.22;37.30;;;;;;;15.26;100.00;100280.00;4901513;29;20043;-74
2021/03/14 17:34:58;;;;;;;55.35;34.67;;;;;;;15.17;100.00;100269.81;4901822;29;20135;-76
2021/03/14 17:37:45;;;;;;;46.35;29.70;;;;;;;15.35;100.00;100269.91;4902157;29;20021;-74
2021/03/14 17:40:31;;;;;;;48.10;29.45;;;;;;;15.14;100.00;100267.34;4887588;29;20028;-75
2021/03/14 17:43:16;;;;;;;53.72;32.08;;;;;;;15.31;100.00;100270.09;4900945;29;20047;-74
2021/03/14 17:46:04;;;;;;;55.35;32.83;;;;;;;14.67;100.00;100266.72;4903532;29;20365;-73
2021/03/14 17:48:50;;;;;;;50.97;32.67;;;;;;;14.90;100.00;100271.88;4906888;29;20024;-73
2021/03/14 17:51:35;;;;;;;52.45;33.50;;;;;;;15.10;100.00;100271.03;4910016;29;20020;-74
2021/03/14 17:54:21;;;;;;;46.33;29.27;;;;;;;14.94;100.00;100259.41;4908065;29;20032;-73
2021/03/14 17:57:07;;;;;;;41.40;25.98;;;;;;;14.84;100.00;100245.75;4906142;29;20024;-74
2021/03/14 17:59:54;;;;;;;49.17;30.13;;;;;;;14.72;100.00;100255.03;4905130;29;20373;-73
2021/03/14 18:02:39;;;;;;;56.08;35.20;;;;;;;14.59;100.00;100253.81;4906487;29;20095;-74
2021/03/14 18:05:25;;;;;;;44.65;30.20;;;;;;;14.65;100.00;100252.72;4905593;29;20029;-73
2021/03/14 18:08:12;;;;;;;41.72;27.52;;;;;;;14.49;100.00;100249.00;4904965;29;20145;-74
2021/03/14 18:10:57;;;;;;;52.83;34.50;;;;;;;14.53;100.00;100247.94;4891781;29;20028;-74
2021/03/14 18:13:43;;;;;;;71.38;41.67;;;;;;;14.41;100.00;100245.81;4889841;29;20039;-74
2021/03/14 18:16:29;;;;;;;68.43;43.03;;;;;;;14.49;100.00;100251.63;4901613;29;20032;-73
2021/03/14 18:19:15;;;;;;;64.10;41.65;;;;;;;14.69;100.00;100244.63;4901652;29;20032;-73
2021/03/14 18:22:01;;;;;;;64.60;41.97;;;;;;;14.59;100.00;100255.63;4901246;29;20385;-73
2021/03/14 18:24:46;;;;;;;58.17;38.60;;;;;;;14.32;100.00;100251.44;4901814;29;20514;-74
2021/03/14 18:27:32;;;;;;;65.00;36.28;;;;;;;14.24;100.00;100251.75;4901681;29;20131;-74
2021/03/14 18:30:21;;;;;;;59.72;35.88;;;;;;;14.02;100.00;100240.31;4900365;29;20036;-73
2021/03/14 18:33:07;;;;;;;66.00;41.75;;;;;;;14.08;100.00;100240.09;4886385;29;20039;-74
2021/03/14 18:35:53;;;;;;;58.90;35.58;;;;;;;14.32;100.00;100249.66;4899730;29;20310;-75
2021/03/14 18:38:39;;;;;;;62.47;36.58;;;;;;;14.17;100.00;100244.97;4900536;29;20043;-74
2021/03/14 18:41:24;;;;;;;68.30;41.28;;;;;;;14.13;100.00;100239.88;4901142;29;20075;-74
2021/03/14 18:44:10;;;;;;;71.80;43.33;;;;;;;13.92;100.00;100240.72;4902282;29;20037;-74
2021/03/14 18:46:57;;;;;;;73.05;41.42;;;;;;;13.91;100.00;100245.13;4899587;29;20020;-75
2021/03/14 18:49:43;;;;;;;69.55;42.05;;;;;;;13.76;100.00;100240.47;4901422;29;20024;-74
2021/03/14 18:52:28;;;;;;;65.72;41.22;;;;;;;13.90;100.00;100239.91;4900427;29;20358;-75
2021/03/14 18:55:14;;;;;;;62.50;37.97;;;;;;;13.66;100.00;100236.44;4901654;29;20037;-75
2021/03/14 18:58:00;;;;;;;61.10;38.65;;;;;;;13.86;100.00;100235.69;4900494;29;20041;-73
2021/03/14 19:00:46;;;;;;;68.68;42.75;;;;;;;13.57;100.00;100239.44;4887557;29;20108;-75
2021/03/14 19:03:32;;;;;;;65.28;42.17;;;;;;;13.55;100.00;100235.13;4900010;29;20040;-75
2021/03/14 19:06:18;;;;;;;53.97;36.67;;;;;;;13.63;100.00;100231.28;4900526;29;20393;-76
2021/03/14 19:09:04;;;;;;;58.67;35.20;;;;;;;13.72;100.00;100230.09;4901048;29;20021;-75
2021/03/14 19:11:49;;;;;;;49.40;32.13;;;;;;;13.77;100.00;100228.13;4899947;29;20092;-74
2021/03/14 19:14:35;;;;;;;43.33;27.15;;;;;;;13.66;100.00;100220.66;4900257;29;20033;-76
2021/03/14 19:17:21;;;;;;;38.10;26.52;;;;;;;13.83;100.00;100220.03;4886556;29;20025;-75
2021/03/14 19:20:11;;;;;;;36.30;23.98;;;;;;;13.87;100.00;100217.19;4900889;29;20028;-76
2021/03/14 19:22:57;;;;;;;42.90;28.33;;;;;;;13.47;100.00;100208.25;4899050;29;20110;-74
2021/03/14 19:25:42;;;;;;;43.47;29.73;;;;;;;13.27;100.00;100216.00;4881312;29;20052;-76
2021/03/14 19:28:28;;;;;;;38.42;26.92;;;;;;;13.44;100.00;100209.22;4882156;29;20403;-74
2021/03/14 19:31:14;;;;;;;34.55;25.10;;;;;;;13.56;100.00;100200.88;4880765;29;20029;-74
2021/03/14 19:34:00;;;;;;;41.67;28.45;;;;;;;13.68;100.00;100196.91;4879427;29;20036;-75
2021/03/14 19:36:46;;;;;;;38.38;27.05;;;;;;;13.82;100.00;100203.34;4880691;29;20036;-76
2021/03/14 19:39:31;;;;;;;34.95;23.42;;;;;;;13.75;100.00;100206.28;4880242;29;20040;-75
2021/03/14 19:42:17;;;;;;;30.88;20.15;;;;;;;13.68;100.00;100202.16;4879845;29;20029;-74
2021/03/14 19:45:04;;;;;;;31.50;20.60;;;;;;;13.94;100.00;100200.25;4881648;29;20033;-75
2021/03/14 19:47:50;;;;;;;40.58;25.60;;;;;;;13.89;100.00;100201.34;4879621;29;20056;-76
2021/03/14 19:50:36;;;;;;;53.03;27.92;;;;;;;13.80;100.00;100199.06;4881300;29;20051;-74
2021/03/14 19:53:22;;;;;;;43.83;26.02;;;;;;;13.67;100.00;100203.09;4879967;29;20426;-76
2021/03/14 19:56:08;;;;;;;42.20;28.70;;;;;;;13.63;100.00;100199.69;4881740;29;20041;-75
2021/03/14 19:58:54;;;;;;;36.67;21.98;;;;;;;13.41;100.00;100197.94;4880539;29;20029;-74
2021/03/14 20:01:40;;;;;;;36.63;22.65;;;;;;;13.72;100.00;100198.50;4880696;29;20462;-74
2021/03/14 20:04:26;;;;;;;38.30;23.60;;;;;;;13.79;100.00;100192.94;4879464;29;20055;-75
2021/03/14 20:07:12;;;;;;;35.38;22.92;;;;;;;13.84;100.00;100200.66;4881367;29;20036;-75
2021/03/14 20:09:57;;;;;;;41.20;25.83;;;;;;;13.51;100.00;100189.63;4879339;29;20041;-75
2021/03/14 20:12:43;;;;;;;59.75;36.20;;;;;;;13.11;100.00;100191.19;4880991;29;20458;-76
2021/03/14 20:15:30;;;;;;;60.17;35.42;;;;;;;13.30;100.00;100190.44;4880114;29;20096;-75
2021/03/14 20:18:23;;;;;;;56.90;34.60;;;;;;;13.05;100.00;100186.13;4881247;29;20032;-75
2021/03/14 20:21:09;;;;;;;59.72;35.80;;;;;;;13.23;100.00;100186.31;4881689;29;20043;-74
2021/03/14 20:23:55;;;;;;;58.42;37.90;;;;;;;13.32;100.00;100175.47;4884673;29;20064;-73
2021/03/14 20:26:41;;;;;;;72.22;44.95;;;;;;;12.86;100.00;100177.16;4899352;29;20032;-73
2021/03/14 20:29:28;;;;;;;92.43;51.42;;;;;;;13.07;100.00;100174.63;4898323;29;20036;-75
2021/03/14 20:32:16;;;;;;;83.70;48.28;;;;;;;12.68;100.00;100168.13;4886205;29;20024;-74
2021/03/14 20:35:03;;;;;;;69.43;41.42;;;;;;;12.21;100.00;100157.50;4898854;29;20085;-75
2021/03/14 20:37:49;;;;;;;49.97;32.95;;;;;;;12.23;100.00;100158.31;4900223;29;20415;-74
2021/03/14 20:40:35;;;;;;;61.53;37.03;;;;;;;12.65;100.00;100152.47;4898786;29;20028;-74
2021/03/14 20:43:21;;;;;;;67.18;38.10;;;;;;;12.80;100.00;100145.81;4898666;29;20374;-75
2021/03/14 20:46:08;;;;;;;68.22;39.03;;;;;;;12.82;100.00;100144.00;4898933;29;20021;-74
2021/03/14 20:48:54;;;;;;;62.20;34.50;;;;;;;12.86;100.00;100148.25;4898643;29;20047;-75
2021/03/14 20:51:39;;;;;;;71.00;38.10;;;;;;;12.61;100.00;100142.97;4885093;29;20039;-74
2021/03/14 20:54:25;;;;;;;60.70;34.55;;;;;;;12.74;100.00;100146.03;4898211;29;20032;-74
2021/03/14 20:57:11;;;;;;;60.63;34.67;;;;;;;13.11;100.00;100151.72;4899120;29;20446;-73
2021/03/14 20:59:57;;;;;;;50.95;30.73;;;;;;;12.98;100.00;100156.56;4884653;29;20064;-74
2021/03/14 21:02:42;;;;;;;58.33;37.55;;;;;;;12.87;100.00;100150.78;4898626;29;20096;-75
2021/03/14 21:05:31;;;;;;;50.92;32.00;;;;;;;12.97;100.00;100151.31;4897823;29;20460;-75
2021/03/14 21:08:18;;;;;;;43.50;30.45;;;;;;;13.23;100.00;100138.97;4899554;29;20043;-74
2021/03/14 21:11:07;;;;;;;45.65;31.17;;;;;;;12.56;100.00;100144.91;4899627;29;20029;-74
2021/03/14 21:13:53;;;;;;;46.35;28.75;;;;;;;12.40;100.00;100130.59;4898605;29;20032;-74
2021/03/14 21:16:39;;;;;;;47.08;29.30;;;;;;;12.60;100.00;100129.88;4885197;29;20039;-73
2021/03/14 21:19:25;;;;;;;45.63;30.80;;;;;;;12.36;100.00;100128.09;4900619;29;20130;-74
2021/03/14 21:22:11;;;;;;;49.47;31.02;;;;;;;12.56;100.00;100126.53;4903158;29;20043;-75
2021/03/14 21:24:56;;;;;;;50.67;30.80;;;;;;;12.56;100.00;100123.03;4884913;29;20052;-74
2021/03/14 21:27:42;;;;;;;46.72;30.98;;;;;;;12.44;100.00;100118.19;4898580;29;20422;-74
2021/03/14 21:30:28;;;;;;;47.90;30.63;;;;;;;12.45;100.00;100125.16;4898410;29;20028;-73
2021/03/14 21:33:14;;;;;;;47.33;30.98;;;;;;;12.46;100.00;100113.75;4899004;29;20116;-74
2021/03/14 21:35:59;;;;;;;45.97;31.15;;;;;;;12.31;100.00;100112.53;4897639;29;20116;-73
2021/03/14 21:38:45;;;;;;;47.80;31.60;;;;;;;12.24;100.00;100110.13;4885631;29;20469;-73
2021/03/14 21:41:31;;;;;;;52.25;32.55;;;;;;;12.34;100.00;100115.00;4898970;29;20366;-74
2021/03/14 21:44:17;;;;;;;53.75;33.55;;;;;;;12.13;100.00;100104.41;4900614;29;20025;-74
2021/03/14 21:47:03;;;;;;;49.15;32.58;;;;;;;12.37;100.00;100106.16;4898387;29;20131;-74
2021/03/14 21:49:49;;;;;;;48.80;32.83;;;;;;;12.32;100.00;100100.22;4900086;29;20048;-73
2021/03/14 21:52:35;;;;;;;53.05;34.30;;;;;;;12.36;100.00;100092.19;4896831;29;20107;-72
2021/03/14 21:55:21;;;;;;;61.35;34.65;;;;;;;12.13;100.00;100088.66;4898478;29;20029;-73
2021/03/14 21:58:07;;;;;;;50.90;33.47;;;;;;;12.10;100.00;100076.44;4898773;29;20025;-74
2021/03/14 22:00:55;;;;;;;58.38;33.70;;;;;;;12.19;100.00;100078.78;4898528;29;20040;-74
2021/03/14 22:03:41;;;;;;;55.33;35.83;;;;;;;12.24;100.00;100079.47;4897454;29;20036;-74
2021/03/14 22:06:26;;;;;;;67.78;37.50;;;;;;;12.14;100.00;100079.84;4900120;29;20116;-73
2021/03/14 22:09:12;;;;;;;53.47;36.90;;;;;;;12.12;100.00;100079.03;4901635;29;20028;-74
2021/03/14 22:11:58;;;;;;;57.03;37.17;;;;;;;12.09;100.00;100073.91;4887380;29;20024;-74
2021/03/14 22:14:44;;;;;;;65.13;38.70;;;;;;;12.14;100.00;100066.72;4901476;29;20179;-73
2021/03/14 22:17:30;;;;;;;60.63;37.80;;;;;;;12.11;100.00;100064.19;4888481;29;20076;-74
2021/03/14 22:20:17;;;;;;;52.35;34.15;;;;;;;12.28;100.00;100052.19;4903149;29;20406;-73
2021/03/14 22:23:03;;;;;;;56.72;35.83;;;;;;;12.52;100.00;100053.97;4902041;29;20032;-74
2021/03/14 22:25:49;;;;;;;41.47;29.52;;;;;;;12.70;100.00;100053.28;4902011;29;20148;-74
2021/03/14 22:28:36;;;;;;;32.38;24.13;;;;;;;12.65;100.00;100042.09;4887902;29;20112;-74
2021/03/14 22:31:22;;;;;;;33.60;24.02;;;;;;;12.91;100.00;100036.72;4901700;29;20033;-73
2021/03/14 22:34:08;;;;;;;34.03;23.75;;;;;;;13.07;100.00;100039.66;4900687;29;20123;-74
2021/03/14 22:36:56;;;;;;;38.30;27.88;;;;;;;13.13;100.00;100029.78;4901637;29;20448;-74
2021/03/14 22:39:42;;;;;;;39.63;31.02;;;;;;;13.37;100.00;100013.03;4892125;29;20025;-74
2021/03/14 22:42:28;;;;;;;45.63;29.90;;;;;;;13.47;100.00;100009.09;4887823;29;20036;-74
2021/03/14 22:45:17;;;;;;;39.00;27.38;;;;;;;13.31;100.00;100015.88;4900738;29;20070;-74
2021/03/14 22:48:04;;;;;;;33.33;23.33;;;;;;;13.61;100.00;100014.66;4886849;29;20370;-73
2021/03/14 22:50:50;;;;;;;31.00;23.40;;;;;;;13.69;100.00;100009.94;4901792;29;20050;-74
2021/03/14 22:53:36;;;;;;;34.70;25.48;;;;;;;13.44;100.00;99998.72;4901007;29;20180;-74
2021/03/14 22:56:22;;;;;;;32.72;24.70;;;;;;;13.42;100.00;100000.53;4900898;29;20037;-74
2021/03/14 22:59:07;;;;;;;32.95;25.27;;;;;;;13.53;100.00;100016.75;4886731;29;20029;-73
2021/03/14 23:01:53;;;;;;;33.92;26.08;;;;;;;13.42;100.00;99999.69;4901761;29;20129;-73
2021/03/14 23:04:39;;;;;;;37.63;25.75;;;;;;;13.21;100.00;100003.16;4900802;29;20021;-73
2021/03/14 23:07:25;;;;;;;35.28;25.08;;;;;;;13.35;100.00;99999.06;4901156;29;20473;-74
2021/03/14 23:10:15;;;;;;;36.20;27.65;;;;;;;13.49;100.00;99990.63;4899857;29;20116;-74
2021/03/14 23:13:01;;;;;;;33.63;25.50;;;;;;;13.16;100.00;99998.09;4900424;29;20529;-73
2021/03/14 23:15:47;;;;;;;35.50;26.48;;;;;;;13.38;100.00;99991.06;4901238;29;20088;-74
2021/03/14 23:18:34;;;;;;;35.03;26.15;;;;;;;13.37;100.00;99991.97;4901018;29;20028;-74
2021/03/14 23:21:20;;;;;;;41.25;28.90;;;;;;;13.22;100.00;99987.31;4900510;29;20052;-74
2021/03/14 23:24:07;;;;;;;36.35;27.13;;;;;;;12.97;100.00;99978.69;4899386;29;20056;-74
2021/03/14 23:26:53;;;;;;;43.50;30.42;;;;;;;12.97;100.00;99978.69;4900753;29;20039;-74
2021/03/14 23:29:39;;;;;;;44.80;32.10;;;;;;;12.93;100.00;99979.69;4899498;29;20028;-74
2021/03/14 23:32:25;;;;;;;44.40;31.02;;;;;;;12.80;100.00;99967.94;4900632;29;20028;-74
2021/03/14 23:35:11;;;;;;;46.20;31.67;;;;;;;12.49;100.00;99972.63;4899078;29;20387;-74
2021/03/14 23:37:57;;;;;;;47.95;34.58;;;;;;;12.36;100.00;99973.13;4900219;29;20107;-74
2021/03/14 23:40:43;;;;;;;46.65;32.10;;;;;;;12.34;100.00;99961.84;4887167;29;20032;-74
2021/03/14 23:43:29;;;;;;;50.05;34.47;;;;;;;12.26;100.00;99963.88;4887300;29;20040;-73
2021/03/14 23:46:16;;;;;;;50.45;34.45;;;;;;;11.99;100.00;99949.09;4899274;29;20025;-73
2021/03/14 23:49:03;;;;;;;44.53;31.67;;;;;;;12.06;100.00;99953.22;4885769;29;20047;-74
2021/03/14 23:51:49;;;;;;;44.35;32.53;;;;;;;12.44;100.00;99948.28;4899849;29;20140;-74
2021/03/14 23:54:35;;;;;;;38.28;26.52;;;;;;;12.29;100.00;99940.97;4900182;29;20029;-74
2021/03/14 23:57:21;;;;;;;38.28;26.90;;;;;;;12.49;100.00;99938.47;4900696;29;20092;-73
